sensor_id;sensor_type;location;lat;lon;timestamp;P1;durP1;ratioP1;P2;durP2;ratioP2
15526;SDS011;7865;50.918;4.510;2023-04-15T00:03:04;13.93;;;9.20;;
15526;SDS011;7865;50.918;4.510;2023-04-15T00:08:07;14.37;;;8.03;;
15526;SDS011;7865;50.918;4.510;2023-04-15T00:13:10;12.17;;;6.90;;
15526;SDS011;7865;50.918;4.510;2023-04-15T00:18:12;11.13;;;7.00;;
15526;SDS011;7865;50.918;4.510;2023-04-15T00:23:14;10.00;;;5.83;;
15526;SDS011;7865;50.918;4.510;2023-04-15T00:28:16;8.27;;;5.00;;
15526;SDS011;7865;50.918;4.510;2023-04-15T00:33:19;8.67;;;5.50;;
15526;SDS011;7865;50.918;4.510;2023-04-15T00:38:21;9.90;;;5.87;;
15526;SDS011;7865;50.918;4.510;2023-04-15T00:43:23;6.90;;;4.93;;
15526;SDS011;7865;50.918;4.510;2023-04-15T00:48:27;11.97;;;5.50;;
15526;SDS011;7865;50.918;4.510;2023-04-15T00:53:29;8.83;;;4.90;;
15526;SDS011;7865;50.918;4.510;2023-04-15T00:58:31;7.53;;;4.97;;
15526;SDS011;7865;50.918;4.510;2023-04-15T01:03:33;10.73;;;5.40;;
15526;SDS011;7865;50.918;4.510;2023-04-15T01:08:36;7.27;;;4.77;;
15526;SDS011;7865;50.918;4.510;2023-04-15T01:13:42;7.53;;;4.37;;
15526;SDS011;7865;50.918;4.510;2023-04-15T01:18:44;11.47;;;4.70;;
15526;SDS011;7865;50.918;4.510;2023-04-15T01:23:47;5.87;;;4.10;;
15526;SDS011;7865;50.918;4.510;2023-04-15T01:28:49;7.67;;;3.93;;
15526;SDS011;7865;50.918;4.510;2023-04-15T01:33:53;5.63;;;4.03;;
15526;SDS011;7865;50.918;4.510;2023-04-15T01:39:13;4.37;;;3.83;;
15526;SDS011;7865;50.918;4.510;2023-04-15T01:44:15;4.63;;;3.80;;
15526;SDS011;7865;50.918;4.510;2023-04-15T01:49:18;5.67;;;3.80;;
15526;SDS011;7865;50.918;4.510;2023-04-15T01:54:19;5.40;;;4.40;;
15526;SDS011;7865;50.918;4.510;2023-04-15T01:59:21;8.00;;;4.97;;
15526;SDS011;7865;50.918;4.510;2023-04-15T02:04:23;5.20;;;4.57;;
15526;SDS011;7865;50.918;4.510;2023-04-15T02:09:26;5.87;;;4.13;;
15526;SDS011;7865;50.918;4.510;2023-04-15T02:14:28;5.57;;;4.37;;
15526;SDS011;7865;50.918;4.510;2023-04-15T02:19:30;11.53;;;5.43;;
15526;SDS011;7865;50.918;4.510;2023-04-15T02:24:33;10.00;;;5.63;;
15526;SDS011;7865;50.918;4.510;2023-04-15T02:29:37;10.83;;;5.57;;
15526;SDS011;7865;50.918;4.510;2023-04-15T02:34:39;9.90;;;5.70;;
15526;SDS011;7865;50.918;4.510;2023-04-15T02:39:43;8.63;;;6.50;;
15526;SDS011;7865;50.918;4.510;2023-04-15T02:44:45;8.50;;;6.43;;
15526;SDS011;7865;50.918;4.510;2023-04-15T02:49:47;10.57;;;7.17;;
15526;SDS011;7865;50.918;4.510;2023-04-15T02:54:50;9.87;;;6.80;;
15526;SDS011;7865;50.918;4.510;2023-04-15T02:59:52;10.47;;;6.90;;
15526;SDS011;7865;50.918;4.510;2023-04-15T03:04:54;12.07;;;6.87;;
15526;SDS011;7865;50.918;4.510;2023-04-15T03:09:57;9.67;;;6.00;;
15526;SDS011;7865;50.918;4.510;2023-04-15T03:14:59;8.33;;;6.23;;
15526;SDS011;7865;50.918;4.510;2023-04-15T03:20:09;9.97;;;6.40;;
15526;SDS011;7865;50.918;4.510;2023-04-15T03:25:12;8.10;;;6.50;;
15526;SDS011;7865;50.918;4.510;2023-04-15T03:30:14;9.97;;;6.80;;
15526;SDS011;7865;50.918;4.510;2023-04-15T03:35:16;11.83;;;7.57;;
15526;SDS011;7865;50.918;4.510;2023-04-15T03:40:20;7.50;;;6.70;;
15526;SDS011;7865;50.918;4.510;2023-04-15T03:45:22;10.07;;;6.40;;
15526;SDS011;7865;50.918;4.510;2023-04-15T03:50:24;11.47;;;7.53;;
15526;SDS011;7865;50.918;4.510;2023-04-15T03:55:26;7.87;;;5.83;;
15526;SDS011;7865;50.918;4.510;2023-04-15T04:00:28;9.50;;;7.40;;
15526;SDS011;7865;50.918;4.510;2023-04-15T04:05:31;11.20;;;7.40;;
15526;SDS011;7865;50.918;4.510;2023-04-15T04:10:32;7.73;;;6.70;;
15526;SDS011;7865;50.918;4.510;2023-04-15T04:15:34;11.57;;;7.30;;
15526;SDS011;7865;50.918;4.510;2023-04-15T04:20:37;8.97;;;7.10;;
15526;SDS011;7865;50.918;4.510;2023-04-15T04:25:39;11.30;;;7.33;;
15526;SDS011;7865;50.918;4.510;2023-04-15T04:30:42;8.80;;;6.40;;
15526;SDS011;7865;50.918;4.510;2023-04-15T04:35:45;9.90;;;6.23;;
15526;SDS011;7865;50.918;4.510;2023-04-15T04:40:47;8.90;;;6.00;;
15526;SDS011;7865;50.918;4.510;2023-04-15T04:45:49;11.47;;;5.73;;
15526;SDS011;7865;50.918;4.510;2023-04-15T04:50:51;9.23;;;6.43;;
15526;SDS011;7865;50.918;4.510;2023-04-15T04:55:54;8.93;;;6.50;;
15526;SDS011;7865;50.918;4.510;2023-04-15T05:00:56;11.03;;;6.73;;
15526;SDS011;7865;50.918;4.510;2023-04-15T05:05:59;12.10;;;7.20;;
15526;SDS011;7865;50.918;4.510;2023-04-15T05:11:01;10.80;;;6.33;;
15526;SDS011;7865;50.918;4.510;2023-04-15T05:16:04;9.13;;;6.67;;
15526;SDS011;7865;50.918;4.510;2023-04-15T05:21:06;8.67;;;6.30;;
15526;SDS011;7865;50.918;4.510;2023-04-15T05:26:09;8.80;;;6.90;;
15526;SDS011;7865;50.918;4.510;2023-04-15T05:31:11;10.63;;;6.67;;
15526;SDS011;7865;50.918;4.510;2023-04-15T05:36:13;11.03;;;6.40;;
15526;SDS011;7865;50.918;4.510;2023-04-15T05:41:15;9.70;;;6.93;;
15526;SDS011;7865;50.918;4.510;2023-04-15T05:46:20;9.07;;;6.70;;
15526;SDS011;7865;50.918;4.510;2023-04-15T05:51:23;10.63;;;7.00;;
15526;SDS011;7865;50.918;4.510;2023-04-15T05:56:25;13.13;;;6.17;;
15526;SDS011;7865;50.918;4.510;2023-04-15T06:01:27;9.93;;;6.13;;
15526;SDS011;7865;50.918;4.510;2023-04-15T06:06:29;9.87;;;6.70;;
15526;SDS011;7865;50.918;4.510;2023-04-15T06:11:33;11.33;;;6.90;;
15526;SDS011;7865;50.918;4.510;2023-04-15T06:16:35;8.73;;;6.17;;
15526;SDS011;7865;50.918;4.510;2023-04-15T06:21:37;8.57;;;6.47;;
15526;SDS011;7865;50.918;4.510;2023-04-15T06:26:39;10.73;;;7.10;;
15526;SDS011;7865;50.918;4.510;2023-04-15T06:31:41;8.80;;;6.53;;
15526;SDS011;7865;50.918;4.510;2023-04-15T06:36:43;10.33;;;6.10;;
15526;SDS011;7865;50.918;4.510;2023-04-15T06:41:46;7.63;;;6.23;;
15526;SDS011;7865;50.918;4.510;2023-04-15T06:46:48;9.90;;;6.27;;
15526;SDS011;7865;50.918;4.510;2023-04-15T06:51:50;9.67;;;6.67;;
15526;SDS011;7865;50.918;4.510;2023-04-15T06:56:53;17.33;;;7.37;;
15526;SDS011;7865;50.918;4.510;2023-04-15T07:01:55;14.43;;;7.13;;
15526;SDS011;7865;50.918;4.510;2023-04-15T07:06:57;12.03;;;7.30;;
15526;SDS011;7865;50.918;4.510;2023-04-15T07:12:03;11.50;;;6.90;;
15526;SDS011;7865;50.918;4.510;2023-04-15T07:17:05;12.53;;;7.70;;
15526;SDS011;7865;50.918;4.510;2023-04-15T07:22:07;12.63;;;7.90;;
15526;SDS011;7865;50.918;4.510;2023-04-15T07:27:10;12.80;;;7.80;;
15526;SDS011;7865;50.918;4.510;2023-04-15T07:32:12;17.17;;;7.93;;
15526;SDS011;7865;50.918;4.510;2023-04-15T07:37:14;10.53;;;8.30;;
15526;SDS011;7865;50.918;4.510;2023-04-15T07:42:16;13.60;;;9.03;;
15526;SDS011;7865;50.918;4.510;2023-04-15T07:47:18;10.83;;;8.97;;
15526;SDS011;7865;50.918;4.510;2023-04-15T07:52:20;12.27;;;9.10;;
15526;SDS011;7865;50.918;4.510;2023-04-15T07:57:22;14.23;;;10.00;;
15526;SDS011;7865;50.918;4.510;2023-04-15T08:02:24;13.90;;;9.63;;
15526;SDS011;7865;50.918;4.510;2023-04-15T08:07:27;12.10;;;9.27;;
15526;SDS011;7865;50.918;4.510;2023-04-15T08:12:29;13.97;;;9.97;;
15526;SDS011;7865;50.918;4.510;2023-04-15T08:17:32;11.57;;;9.60;;
15526;SDS011;7865;50.918;4.510;2023-04-15T08:22:34;12.67;;;9.93;;
15526;SDS011;7865;50.918;4.510;2023-04-15T08:27:36;12.60;;;8.70;;
15526;SDS011;7865;50.918;4.510;2023-04-15T08:32:42;14.30;;;9.77;;
15526;SDS011;7865;50.918;4.510;2023-04-15T08:37:48;11.57;;;8.18;;
15526;SDS011;7865;50.918;4.510;2023-04-15T08:42:49;10.90;;;7.35;;
15526;SDS011;7865;50.918;4.510;2023-04-15T08:47:57;8.60;;;5.47;;
15526;SDS011;7865;50.918;4.510;2023-04-15T08:52:59;10.05;;;6.55;;
15526;SDS011;7865;50.918;4.510;2023-04-15T08:58:02;9.18;;;6.45;;
15526;SDS011;7865;50.918;4.510;2023-04-15T09:03:05;10.88;;;6.25;;
15526;SDS011;7865;50.918;4.510;2023-04-15T09:08:08;7.93;;;5.82;;
15526;SDS011;7865;50.918;4.510;2023-04-15T09:13:10;9.07;;;6.60;;
15526;SDS011;7865;50.918;4.510;2023-04-15T09:18:12;7.55;;;6.20;;
15526;SDS011;7865;50.918;4.510;2023-04-15T09:23:28;11.30;;;6.80;;
15526;SDS011;7865;50.918;4.510;2023-04-15T09:28:30;7.65;;;5.93;;
15526;SDS011;7865;50.918;4.510;2023-04-15T09:33:32;8.50;;;4.57;;
15526;SDS011;7865;50.918;4.510;2023-04-15T09:38:34;6.20;;;4.57;;
15526;SDS011;7865;50.918;4.510;2023-04-15T09:43:48;6.38;;;5.05;;
15526;SDS011;7865;50.918;4.510;2023-04-15T09:49:06;7.57;;;6.15;;
15526;SDS011;7865;50.918;4.510;2023-04-15T09:54:09;8.57;;;5.22;;
15526;SDS011;7865;50.918;4.510;2023-04-15T09:59:11;9.55;;;5.75;;
15526;SDS011;7865;50.918;4.510;2023-04-15T10:04:13;6.80;;;4.97;;
15526;SDS011;7865;50.918;4.510;2023-04-15T10:09:17;7.88;;;4.82;;
15526;SDS011;7865;50.918;4.510;2023-04-15T10:14:19;5.80;;;4.60;;
15526;SDS011;7865;50.918;4.510;2023-04-15T10:19:22;7.07;;;4.20;;
15526;SDS011;7865;50.918;4.510;2023-04-15T10:24:30;6.22;;;3.13;;
15526;SDS011;7865;50.918;4.510;2023-04-15T10:29:33;5.57;;;3.53;;
15526;SDS011;7865;50.918;4.510;2023-04-15T10:34:35;3.20;;;2.53;;
15526;SDS011;7865;50.918;4.510;2023-04-15T10:39:40;5.10;;;3.55;;
15526;SDS011;7865;50.918;4.510;2023-04-15T10:44:47;5.72;;;3.55;;
15526;SDS011;7865;50.918;4.510;2023-04-15T10:49:56;3.85;;;2.38;;
15526;SDS011;7865;50.918;4.510;2023-04-15T10:55:11;5.25;;;3.40;;
15526;SDS011;7865;50.918;4.510;2023-04-15T11:00:18;6.10;;;4.25;;
15526;SDS011;7865;50.918;4.510;2023-04-15T11:05:22;5.20;;;4.43;;
15526;SDS011;7865;50.918;4.510;2023-04-15T11:15:46;5.38;;;3.00;;
15526;SDS011;7865;50.918;4.510;2023-04-15T11:20:52;3.88;;;2.95;;
15526;SDS011;7865;50.918;4.510;2023-04-15T11:25:58;5.13;;;2.38;;
15526;SDS011;7865;50.918;4.510;2023-04-15T11:31:13;3.63;;;3.33;;
15526;SDS011;7865;50.918;4.510;2023-04-15T11:36:16;5.15;;;3.30;;
15526;SDS011;7865;50.918;4.510;2023-04-15T11:41:21;4.85;;;2.40;;
15526;SDS011;7865;50.918;4.510;2023-04-15T11:46:28;2.75;;;2.30;;
15526;SDS011;7865;50.918;4.510;2023-04-15T11:51:32;3.67;;;2.15;;
15526;SDS011;7865;50.918;4.510;2023-04-15T11:56:35;5.47;;;2.55;;
15526;SDS011;7865;50.918;4.510;2023-04-15T12:01:38;3.85;;;2.80;;
15526;SDS011;7865;50.918;4.510;2023-04-15T12:06:40;3.95;;;2.90;;
15526;SDS011;7865;50.918;4.510;2023-04-15T12:11:49;4.68;;;3.60;;
15526;SDS011;7865;50.918;4.510;2023-04-15T12:16:56;3.95;;;3.53;;
15526;SDS011;7865;50.918;4.510;2023-04-15T12:22:02;4.15;;;2.13;;
15526;SDS011;7865;50.918;4.510;2023-04-15T12:27:15;2.75;;;2.50;;
15526;SDS011;7865;50.918;4.510;2023-04-15T12:32:18;4.45;;;2.00;;
15526;SDS011;7865;50.918;4.510;2023-04-15T12:37:21;2.45;;;2.05;;
15526;SDS011;7865;50.918;4.510;2023-04-15T12:42:23;2.15;;;1.77;;
15526;SDS011;7865;50.918;4.510;2023-04-15T12:47:25;3.38;;;2.15;;
15526;SDS011;7865;50.918;4.510;2023-04-15T12:52:28;1.85;;;1.55;;
15526;SDS011;7865;50.918;4.510;2023-04-15T12:57:30;2.45;;;1.60;;
15526;SDS011;7865;50.918;4.510;2023-04-15T13:02:32;4.30;;;2.03;;
15526;SDS011;7865;50.918;4.510;2023-04-15T13:07:34;2.42;;;2.08;;
15526;SDS011;7865;50.918;4.510;2023-04-15T13:12:36;3.15;;;2.30;;
15526;SDS011;7865;50.918;4.510;2023-04-15T13:17:38;3.20;;;2.60;;
15526;SDS011;7865;50.918;4.510;2023-04-15T13:22:40;9.80;;;5.70;;
15526;SDS011;7865;50.918;4.510;2023-04-15T13:27:43;4.43;;;3.38;;
15526;SDS011;7865;50.918;4.510;2023-04-15T13:32:44;5.57;;;3.10;;
15526;SDS011;7865;50.918;4.510;2023-04-15T13:37:49;2.63;;;2.15;;
15526;SDS011;7865;50.918;4.510;2023-04-15T13:42:53;4.25;;;2.47;;
15526;SDS011;7865;50.918;4.510;2023-04-15T13:47:55;2.83;;;2.10;;
15526;SDS011;7865;50.918;4.510;2023-04-15T13:52:58;4.88;;;1.90;;
15526;SDS011;7865;50.918;4.510;2023-04-15T13:58:00;2.60;;;1.77;;
15526;SDS011;7865;50.918;4.510;2023-04-15T14:03:02;3.97;;;2.20;;
15526;SDS011;7865;50.918;4.510;2023-04-15T14:08:04;4.72;;;1.67;;
15526;SDS011;7865;50.918;4.510;2023-04-15T14:13:06;2.40;;;1.10;;
15526;SDS011;7865;50.918;4.510;2023-04-15T14:18:08;4.00;;;1.20;;
15526;SDS011;7865;50.918;4.510;2023-04-15T14:23:10;0.88;;;0.80;;
15526;SDS011;7865;50.918;4.510;2023-04-15T14:28:12;3.47;;;1.30;;
15526;SDS011;7865;50.918;4.510;2023-04-15T14:33:15;1.73;;;1.08;;
15526;SDS011;7865;50.918;4.510;2023-04-15T14:38:17;3.33;;;1.15;;
15526;SDS011;7865;50.918;4.510;2023-04-15T14:43:19;2.70;;;1.63;;
15526;SDS011;7865;50.918;4.510;2023-04-15T14:48:21;4.30;;;2.00;;
15526;SDS011;7865;50.918;4.510;2023-04-15T14:53:24;2.20;;;1.90;;
15526;SDS011;7865;50.918;4.510;2023-04-15T14:58:26;2.33;;;1.55;;
15526;SDS011;7865;50.918;4.510;2023-04-15T15:03:28;2.25;;;1.60;;
15526;SDS011;7865;50.918;4.510;2023-04-15T15:08:31;2.40;;;1.60;;
15526;SDS011;7865;50.918;4.510;2023-04-15T15:13:33;2.53;;;2.30;;
15526;SDS011;7865;50.918;4.510;2023-04-15T15:18:35;6.80;;;2.90;;
15526;SDS011;7865;50.918;4.510;2023-04-15T15:23:37;4.07;;;2.10;;
15526;SDS011;7865;50.918;4.510;2023-04-15T15:28:39;2.42;;;2.10;;
15526;SDS011;7865;50.918;4.510;2023-04-15T15:33:42;5.43;;;2.80;;
15526;SDS011;7865;50.918;4.510;2023-04-15T15:38:45;3.88;;;2.60;;
15526;SDS011;7865;50.918;4.510;2023-04-15T15:43:47;4.68;;;2.30;;
15526;SDS011;7865;50.918;4.510;2023-04-15T15:48:49;3.20;;;2.20;;
15526;SDS011;7865;50.918;4.510;2023-04-15T15:53:51;2.67;;;1.70;;
15526;SDS011;7865;50.918;4.510;2023-04-15T15:58:54;4.03;;;1.48;;
15526;SDS011;7865;50.918;4.510;2023-04-15T16:03:56;5.28;;;2.03;;
15526;SDS011;7865;50.918;4.510;2023-04-15T16:08:58;2.53;;;1.50;;
15526;SDS011;7865;50.918;4.510;2023-04-15T16:14:00;3.70;;;1.70;;
15526;SDS011;7865;50.918;4.510;2023-04-15T16:19:02;2.35;;;1.42;;
15526;SDS011;7865;50.918;4.510;2023-04-15T16:24:04;2.17;;;1.45;;
15526;SDS011;7865;50.918;4.510;2023-04-15T16:29:07;2.92;;;1.58;;
15526;SDS011;7865;50.918;4.510;2023-04-15T16:34:09;2.53;;;1.48;;
15526;SDS011;7865;50.918;4.510;2023-04-15T16:39:11;2.40;;;1.10;;
15526;SDS011;7865;50.918;4.510;2023-04-15T16:44:13;2.05;;;1.60;;
15526;SDS011;7865;50.918;4.510;2023-04-15T16:49:15;2.35;;;1.67;;
15526;SDS011;7865;50.918;4.510;2023-04-15T16:54:17;4.07;;;1.63;;
15526;SDS011;7865;50.918;4.510;2023-04-15T16:59:19;3.53;;;1.30;;
15526;SDS011;7865;50.918;4.510;2023-04-15T17:04:21;2.80;;;1.60;;
15526;SDS011;7865;50.918;4.510;2023-04-15T17:09:24;3.67;;;1.40;;
15526;SDS011;7865;50.918;4.510;2023-04-15T17:14:26;4.43;;;1.80;;
15526;SDS011;7865;50.918;4.510;2023-04-15T17:19:29;2.43;;;1.17;;
15526;SDS011;7865;50.918;4.510;2023-04-15T17:24:38;3.00;;;1.50;;
15526;SDS011;7865;50.918;4.510;2023-04-15T17:29:43;2.30;;;1.23;;
15526;SDS011;7865;50.918;4.510;2023-04-15T17:35:05;4.97;;;1.70;;
15526;SDS011;7865;50.918;4.510;2023-04-15T17:40:28;2.60;;;1.60;;
15526;SDS011;7865;50.918;4.510;2023-04-15T17:45:50;3.60;;;1.40;;
15526;SDS011;7865;50.918;4.510;2023-04-15T17:51:12;3.07;;;1.67;;
15526;SDS011;7865;50.918;4.510;2023-04-15T17:56:33;2.43;;;2.00;;
15526;SDS011;7865;50.918;4.510;2023-04-15T18:01:56;5.47;;;1.77;;
15526;SDS011;7865;50.918;4.510;2023-04-15T18:07:19;4.23;;;1.87;;
15526;SDS011;7865;50.918;4.510;2023-04-15T18:12:41;6.77;;;2.37;;
15526;SDS011;7865;50.918;4.510;2023-04-15T18:18:03;6.57;;;2.10;;
15526;SDS011;7865;50.918;4.510;2023-04-15T18:23:05;6.77;;;2.60;;
15526;SDS011;7865;50.918;4.510;2023-04-15T18:28:08;3.90;;;2.33;;
15526;SDS011;7865;50.918;4.510;2023-04-15T18:33:10;4.53;;;2.00;;
15526;SDS011;7865;50.918;4.510;2023-04-15T18:38:12;6.73;;;2.60;;
15526;SDS011;7865;50.918;4.510;2023-04-15T18:43:14;4.43;;;1.97;;
15526;SDS011;7865;50.918;4.510;2023-04-15T18:48:16;6.97;;;2.80;;
15526;SDS011;7865;50.918;4.510;2023-04-15T18:53:19;2.30;;;2.10;;
15526;SDS011;7865;50.918;4.510;2023-04-15T18:58:21;4.90;;;2.50;;
15526;SDS011;7865;50.918;4.510;2023-04-15T19:03:23;7.10;;;3.07;;
15526;SDS011;7865;50.918;4.510;2023-04-15T19:08:26;4.47;;;2.93;;
15526;SDS011;7865;50.918;4.510;2023-04-15T19:13:28;4.33;;;2.80;;
15526;SDS011;7865;50.918;4.510;2023-04-15T19:18:30;5.10;;;2.80;;
15526;SDS011;7865;50.918;4.510;2023-04-15T19:23:32;6.87;;;3.13;;
15526;SDS011;7865;50.918;4.510;2023-04-15T19:28:34;8.03;;;3.60;;
15526;SDS011;7865;50.918;4.510;2023-04-15T19:33:37;6.83;;;3.70;;
15526;SDS011;7865;50.918;4.510;2023-04-15T19:38:39;10.10;;;5.07;;
15526;SDS011;7865;50.918;4.510;2023-04-15T19:43:41;11.73;;;4.70;;
15526;SDS011;7865;50.918;4.510;2023-04-15T19:48:43;11.23;;;5.67;;
15526;SDS011;7865;50.918;4.510;2023-04-15T19:53:45;11.07;;;6.13;;
15526;SDS011;7865;50.918;4.510;2023-04-15T19:58:50;9.67;;;6.20;;
15526;SDS011;7865;50.918;4.510;2023-04-15T20:03:53;14.67;;;7.03;;
15526;SDS011;7865;50.918;4.510;2023-04-15T20:08:56;16.57;;;7.83;;
15526;SDS011;7865;50.918;4.510;2023-04-15T20:13:58;11.27;;;7.77;;
15526;SDS011;7865;50.918;4.510;2023-04-15T20:19:01;9.77;;;6.57;;
15526;SDS011;7865;50.918;4.510;2023-04-15T20:24:08;15.77;;;7.30;;
15526;SDS011;7865;50.918;4.510;2023-04-15T20:29:12;13.57;;;7.47;;
15526;SDS011;7865;50.918;4.510;2023-04-15T20:34:14;10.70;;;6.23;;
15526;SDS011;7865;50.918;4.510;2023-04-15T20:39:16;16.47;;;7.50;;
15526;SDS011;7865;50.918;4.510;2023-04-15T20:44:18;13.03;;;6.63;;
15526;SDS011;7865;50.918;4.510;2023-04-15T20:49:20;12.87;;;6.83;;
15526;SDS011;7865;50.918;4.510;2023-04-15T20:54:22;8.17;;;4.60;;
15526;SDS011;7865;50.918;4.510;2023-04-15T20:59:24;9.87;;;4.83;;
15526;SDS011;7865;50.918;4.510;2023-04-15T21:04:26;14.47;;;5.13;;
15526;SDS011;7865;50.918;4.510;2023-04-15T21:09:28;12.03;;;5.83;;
15526;SDS011;7865;50.918;4.510;2023-04-15T21:14:31;7.60;;;3.00;;
15526;SDS011;7865;50.918;4.510;2023-04-15T21:19:33;9.17;;;3.83;;
15526;SDS011;7865;50.918;4.510;2023-04-15T21:24:36;5.50;;;3.60;;
15526;SDS011;7865;50.918;4.510;2023-04-15T21:29:38;6.73;;;3.47;;
15526;SDS011;7865;50.918;4.510;2023-04-15T21:34:41;11.00;;;3.97;;
15526;SDS011;7865;50.918;4.510;2023-04-15T21:39:43;7.83;;;4.17;;
15526;SDS011;7865;50.918;4.510;2023-04-15T21:44:45;18.23;;;3.83;;
15526;SDS011;7865;50.918;4.510;2023-04-15T21:49:47;10.30;;;3.40;;
15526;SDS011;7865;50.918;4.510;2023-04-15T21:54:49;10.90;;;3.20;;
15526;SDS011;7865;50.918;4.510;2023-04-15T21:59:51;8.93;;;2.73;;
15526;SDS011;7865;50.918;4.510;2023-04-15T22:04:53;6.23;;;2.27;;
15526;SDS011;7865;50.918;4.510;2023-04-15T22:09:55;4.93;;;2.40;;
15526;SDS011;7865;50.918;4.510;2023-04-15T22:14:57;9.37;;;2.83;;
15526;SDS011;7865;50.918;4.510;2023-04-15T22:19:59;9.60;;;2.30;;
15526;SDS011;7865;50.918;4.510;2023-04-15T22:25:01;9.63;;;2.30;;
15526;SDS011;7865;50.918;4.510;2023-04-15T22:30:04;8.87;;;2.97;;
15526;SDS011;7865;50.918;4.510;2023-04-15T22:35:06;10.83;;;2.60;;
15526;SDS011;7865;50.918;4.510;2023-04-15T22:40:09;8.67;;;2.90;;
15526;SDS011;7865;50.918;4.510;2023-04-15T22:45:12;7.73;;;2.57;;
15526;SDS011;7865;50.918;4.510;2023-04-15T22:50:14;14.90;;;3.67;;
15526;SDS011;7865;50.918;4.510;2023-04-15T22:55:16;17.47;;;4.87;;
15526;SDS011;7865;50.918;4.510;2023-04-15T23:00:21;9.97;;;5.90;;
15526;SDS011;7865;50.918;4.510;2023-04-15T23:05:23;10.87;;;5.10;;
15526;SDS011;7865;50.918;4.510;2023-04-15T23:10:25;10.90;;;5.83;;
15526;SDS011;7865;50.918;4.510;2023-04-15T23:15:27;8.80;;;6.17;;
15526;SDS011;7865;50.918;4.510;2023-04-15T23:20:29;9.07;;;4.73;;
15526;SDS011;7865;50.918;4.510;2023-04-15T23:25:31;14.03;;;5.40;;
15526;SDS011;7865;50.918;4.510;2023-04-15T23:30:33;9.33;;;5.13;;
15526;SDS011;7865;50.918;4.510;2023-04-15T23:35:35;11.77;;;4.50;;
15526;SDS011;7865;50.918;4.510;2023-04-15T23:40:38;6.57;;;4.67;;
15526;SDS011;7865;50.918;4.510;2023-04-15T23:45:40;7.03;;;3.40;;
15526;SDS011;7865;50.918;4.510;2023-04-15T23:50:42;11.47;;;4.70;;
15526;SDS011;7865;50.918;4.510;2023-04-15T23:55:44;8.60;;;2.70;;
